Time;durP1;ratioP1;P1;durP2;ratioP2;P2;SDS_P1;SDS_P2;PMS_P1;PMS_P2;Temp;Humidity;BMP_temperature;BMP_pressure;BME280_temperature;BME280_humidity;BME280_pressure;Samples;Min_cycle;Max_cycle;Signal;HPM_P1;HPM_P2
2021/12/08 00:01:08;;;;;;;47.53;23.13;;;;;;;-1.79;93.46;98496.50;5058340;28;20056;-93
2021/12/08 00:03:35;;;;;;;48.55;22.60;;;;;;;-1.75;93.60;98521.78;5059074;28;20064;-94
2021/12/08 00:06:01;;;;;;;56.80;25.30;;;;;;;-1.68;94.41;98542.75;5057948;28;20398;-94
2021/12/08 00:08:30;;;;;;;52.22;23.27;;;;;;;-1.94;94.40;98500.59;5058749;28;20045;-94
2021/12/08 00:13:46;;;;;;;65.13;27.63;;;;;;;-1.90;93.76;98510.22;5147682;27;20182;-94
2021/12/08 00:16:13;;;;;;;60.95;29.10;;;;;;;-1.98;94.58;98490.97;5114251;28;20052;-93
2021/12/08 00:18:47;;;;;;;54.63;26.02;;;;;;;-1.94;94.40;98503.19;5116263;28;20043;-94
2021/12/08 00:21:14;;;;;;;64.68;27.55;;;;;;;-1.99;95.30;98499.63;5115667;28;20126;-94
2021/12/08 00:23:42;;;;;;;59.30;27.02;;;;;;;-1.88;94.85;98516.34;5116284;28;20432;-93
2021/12/08 00:26:08;;;;;;;57.08;25.55;;;;;;;-2.00;95.94;98495.25;5115497;28;20506;-94
2021/12/08 00:28:36;;;;;;;50.33;25.88;;;;;;;-2.02;94.83;98494.34;5115380;28;20405;-94
2021/12/08 00:31:06;;;;;;;41.70;19.23;;;;;;;-1.94;94.44;98503.19;5116396;28;20374;-94
2021/12/08 00:33:34;;;;;;;55.05;26.63;;;;;;;-1.96;94.70;98501.41;5115790;28;20044;-93
2021/12/08 00:36:02;;;;;;;52.85;26.75;;;;;;;-1.91;95.14;98503.28;5115290;28;20051;-92
2021/12/08 00:38:30;;;;;;;49.97;22.52;;;;;;;-1.83;95.52;98502.53;5117266;28;20115;-94
2021/12/08 00:40:57;;;;;;;51.22;24.85;;;;;;;-1.69;94.71;98524.50;5116236;28;20548;-94
2021/12/08 00:43:23;;;;;;;54.60;25.83;;;;;;;-1.75;95.21;98511.38;5116804;28;20020;-96
2021/12/08 00:45:50;;;;;;;54.30;24.75;;;;;;;-1.75;94.76;98507.03;5116314;28;20101;-93
2021/12/08 00:48:20;;;;;;;63.45;27.45;;;;;;;-1.64;94.55;98512.41;5115099;28;20039;-96
2021/12/08 00:50:47;;;;;;;47.13;20.95;;;;;;;-1.61;93.28;98495.94;5115916;28;20040;-92
2021/12/08 00:53:14;;;;;;;40.63;18.52;;;;;;;-1.52;90.77;98490.88;5114412;28;20393;-94
2021/12/08 00:55:40;;;;;;;36.35;16.10;;;;;;;-1.28;88.99;98508.66;5115547;28;20071;-94
2021/12/08 00:58:06;;;;;;;52.35;22.75;;;;;;;-1.31;89.31;98487.75;5116935;28;20048;-94
2021/12/08 01:00:36;;;;;;;55.75;24.05;;;;;;;-1.26;90.19;98504.34;5114622;28;20055;-93
2021/12/08 01:03:03;;;;;;;50.22;23.50;;;;;;;-1.31;90.36;98506.00;5114065;28;20126;-93
2021/12/08 01:05:35;;;;;;;48.20;22.58;;;;;;;-1.31;91.22;98517.31;5113935;28;20070;-92
2021/12/08 01:08:04;;;;;;;53.75;23.33;;;;;;;-1.46;92.80;98489.25;5114836;28;20427;-93
2021/12/08 01:10:33;;;;;;;56.50;23.73;;;;;;;-1.35;92.27;98514.63;5114815;28;20075;-94
2021/12/08 01:12:59;;;;;;;46.45;23.33;;;;;;;-1.43;91.93;98496.25;5114622;28;20089;-94
2021/12/08 01:15:27;;;;;;;45.30;22.83;;;;;;;-1.55;92.12;98486.50;5114493;28;20044;-93
2021/12/08 01:17:53;;;;;;;43.65;22.50;;;;;;;-1.49;92.56;98497.03;5115046;28;20048;-91
2021/12/08 01:20:19;;;;;;;41.90;21.10;;;;;;;-1.67;92.26;98478.47;5114747;28;20520;-93
2021/12/08 01:22:46;;;;;;;43.00;22.25;;;;;;;-1.54;92.89;98516.94;5113777;28;20067;-94
2021/12/08 01:25:12;;;;;;;41.95;20.83;;;;;;;-1.67;93.04;98488.88;5099958;28;20043;-92
2021/12/08 01:27:39;;;;;;;44.45;20.80;;;;;;;-1.78;92.22;98473.06;5100163;28;20048;-93
2021/12/08 01:30:06;;;;;;;46.53;22.58;;;;;;;-1.70;93.00;98489.72;5099613;28;20135;-92
2021/12/08 01:32:32;;;;;;;40.70;21.35;;;;;;;-1.83;92.54;98468.63;5100635;28;20064;-92
2021/12/08 01:34:58;;;;;;;49.58;21.48;;;;;;;-1.88;92.13;98460.75;5099950;28;20440;-93
2021/12/08 01:37:26;;;;;;;50.13;22.60;;;;;;;-1.97;93.41;98458.84;5100829;28;20044;-93
2021/12/08 01:39:55;;;;;;;43.55;20.25;;;;;;;-1.99;93.79;98464.91;5100280;28;20131;-94
2021/12/08 01:48:29;;;;;;;37.50;17.30;;;;;;;-2.23;94.42;98445.38;5116053;27;20369;-93
2021/12/08 01:50:58;;;;;;;35.60;19.17;;;;;;;-2.22;94.95;98451.44;5115478;28;20048;-93
2021/12/08 01:53:24;;;;;;;38.78;20.40;;;;;;;-2.01;95.26;98477.88;5115353;28;20054;-95
2021/12/08 01:55:51;;;;;;;38.85;18.85;;;;;;;-2.10;94.99;98454.28;5115789;28;20455;-93
2021/12/08 01:58:17;;;;;;;40.97;21.75;;;;;;;-2.11;94.78;98460.31;5115546;28;20131;-95
2021/12/08 02:00:46;;;;;;;50.60;21.80;;;;;;;-2.27;95.21;98449.63;5116061;28;20078;-94
2021/12/08 02:03:13;;;;;;;41.53;20.40;;;;;;;-2.27;95.58;98451.38;5115786;28;20048;-94
2021/12/08 02:05:41;;;;;;;42.58;19.67;;;;;;;-2.34;95.82;98452.06;5114687;28;20052;-94
2021/12/08 02:08:08;;;;;;;44.13;19.40;;;;;;;-2.25;95.35;98464.44;5115266;28;20095;-94
2021/12/08 02:10:37;;;;;;;40.25;20.88;;;;;;;-2.24;95.60;98466.16;5114933;28;20040;-94
2021/12/08 02:13:04;;;;;;;42.60;20.92;;;;;;;-2.28;95.56;98460.91;5116391;28;20501;-94
2021/12/08 02:15:31;;;;;;;39.95;20.27;;;;;;;-2.25;96.00;98454.00;5115351;28;20134;-95
2021/12/08 02:17:57;;;;;;;45.30;22.35;;;;;;;-2.24;96.13;98445.31;5115010;28;20039;-93
2021/12/08 02:20:27;;;;;;;48.45;22.98;;;;;;;-2.20;96.42;98444.53;5114725;28;20043;-94
2021/12/08 02:22:56;;;;;;;47.65;22.02;;;;;;;-2.31;95.57;98429.59;5114725;28;20561;-94
2021/12/08 02:25:24;;;;;;;48.15;21.15;;;;;;;-2.29;95.62;98438.31;5115154;28;20412;-94
2021/12/08 02:27:52;;;;;;;43.63;20.05;;;;;;;-2.19;95.94;98444.56;5115273;28;20412;-94
2021/12/08 02:48:26;;;;;;;26.27;14.00;;;;;;;-0.57;81.83;98381.69;5112256;27;20355;-92
2021/12/08 02:50:56;;;;;;;29.88;14.93;;;;;;;-0.36;81.96;98415.03;5095806;28;20102;-94
2021/12/08 02:53:22;;;;;;;27.13;14.13;;;;;;;-0.48;81.92;98387.91;5095914;28;20460;-93
2021/12/08 02:55:49;;;;;;;30.25;16.30;;;;;;;-0.37;82.50;98389.75;5095644;28;20052;-93
2021/12/08 02:58:16;;;;;;;30.65;15.05;;;;;;;-0.49;83.23;98372.22;5095093;28;20390;-92
2021/12/08 03:00:44;;;;;;;32.28;16.85;;;;;;;-0.48;82.64;98360.91;5094517;28;20070;-93
2021/12/08 03:03:10;;;;;;;33.83;17.02;;;;;;;-0.50;84.43;98375.69;5094783;28;20044;-93
2021/12/08 03:05:38;;;;;;;41.00;16.15;;;;;;;-0.42;82.16;98384.47;5094787;28;20056;-93
2021/12/08 03:08:08;;;;;;;34.25;16.60;;;;;;;-0.46;84.74;98372.25;5095128;28;20068;-93
2021/12/08 03:10:38;;;;;;;35.55;16.40;;;;;;;-0.37;85.02;98381.91;5095060;28;20055;-93
2021/12/08 03:13:04;;;;;;;37.88;17.15;;;;;;;-0.45;85.50;98368.78;5095023;28;20437;-94
2021/12/08 03:18:56;;;;;;;32.83;15.88;;;;;;;-0.44;86.31;98373.13;5124635;27;1541617;-94
2021/12/08 03:27:31;;;;;;;32.88;16.30;;;;;;;-0.41;85.50;98378.41;5156140;27;20385;-93
2021/12/08 03:30:10;;;;;;;31.67;15.52;;;;;;;-0.36;86.05;98368.00;5156195;27;20051;-93
2021/12/08 03:32:39;;;;;;;31.92;15.93;;;;;;;-0.44;85.86;98367.91;5156648;27;20487;-94
2021/12/08 03:35:08;;;;;;;29.10;15.07;;;;;;;-0.34;85.97;98375.00;5156829;27;20043;-94
2021/12/08 03:37:39;;;;;;;28.10;14.52;;;;;;;-0.32;86.04;98368.03;5156434;27;20047;-95
2021/12/08 03:40:10;;;;;;;32.33;16.55;;;;;;;-0.56;86.07;98321.66;5157112;27;20050;-94
2021/12/08 03:42:39;;;;;;;30.23;16.20;;;;;;;-0.52;86.51;98330.38;5156155;27;20099;-93
2021/12/08 03:45:12;;;;;;;34.35;17.13;;;;;;;-0.25;86.81;98368.97;5155637;27;20050;-93
2021/12/08 03:47:42;;;;;;;30.40;15.60;;;;;;;-0.36;86.48;98340.13;5156071;27;20051;-93
2021/12/08 03:50:13;;;;;;;31.48;16.27;;;;;;;-0.52;85.70;98312.09;5155850;27;20047;-94
2021/12/08 03:52:40;;;;;;;28.95;16.00;;;;;;;-0.51;87.13;98301.69;5155391;27;20100;-93
2021/12/08 03:55:08;;;;;;;29.90;15.15;;;;;;;-0.26;87.55;98346.31;5154982;27;20039;-94
2021/12/08 03:57:34;;;;;;;26.15;15.13;;;;;;;-0.32;88.32;98315.78;5155710;27;20050;-93
2021/12/08 04:00:06;;;;;;;32.05;16.58;;;;;;;-0.32;82.09;98296.63;5155938;27;20484;-93
2021/12/08 04:02:32;;;;;;;30.52;16.25;;;;;;;-0.12;79.19;98309.84;5155703;27;20038;-92
2021/12/08 04:05:03;;;;;;;29.77;14.70;;;;;;;-0.17;77.76;98272.34;5155340;27;20043;-94
2021/12/08 04:07:28;;;;;;;;;;;;;;;0.08;77.08;98299.53;5148999;27;20516;-92
2021/12/08 04:09:56;;;;;;;28.33;13.85;;;;;;;-0.12;77.65;98268.03;5135092;27;19922;-93
2021/12/08 04:12:22;;;;;;;27.30;14.50;;;;;;;-0.06;78.64;98283.78;5135529;27;20043;-94
2021/12/08 04:14:56;;;;;;;27.92;14.88;;;;;;;0.16;79.13;98316.16;5135177;27;20040;-93
2021/12/08 04:17:28;;;;;;;29.40;14.77;;;;;;;0.06;80.23;98304.75;5135531;27;20576;-94
2021/12/08 04:19:56;;;;;;;31.90;15.50;;;;;;;0.00;81.49;98286.44;5135416;27;20443;-93
2021/12/08 04:22:27;;;;;;;30.50;16.42;;;;;;;0.03;82.29;98290.81;5134316;27;20043;-92
2021/12/08 04:24:54;;;;;;;32.25;16.65;;;;;;;-0.01;82.81;98280.31;5134777;27;20050;-93
2021/12/08 04:27:27;;;;;;;35.70;15.77;;;;;;;0.10;83.24;98284.75;5134286;27;20039;-93
2021/12/08 04:29:54;;;;;;;31.92;17.48;;;;;;;0.09;82.88;98289.09;5134731;27;20047;-94
2021/12/08 04:32:24;;;;;;;31.95;17.83;;;;;;;0.14;83.58;98303.06;5133885;27;20078;-92
2021/12/08 04:34:56;;;;;;;29.77;16.25;;;;;;;0.16;83.16;98298.72;5135483;27;20047;-92
2021/12/08 04:37:31;;;;;;;31.98;15.98;;;;;;;0.20;83.44;98289.19;5127772;27;20044;-93
2021/12/08 05:10:21;;;;;;;35.85;15.73;;;;;;;0.27;84.60;98256.09;5136592;27;20383;-95
2021/12/08 05:12:53;;;;;;;32.80;15.75;;;;;;;0.17;85.64;98245.59;5136349;28;20058;-93
2021/12/08 05:15:23;;;;;;;29.88;14.65;;;;;;;0.17;85.75;98242.97;5115036;28;20048;-93
2021/12/08 05:17:52;;;;;;;31.92;15.68;;;;;;;0.32;86.12;98256.97;5115743;28;20055;-94
2021/12/08 05:20:26;;;;;;;28.92;14.38;;;;;;;0.19;86.17;98230.75;5115753;28;20050;-94
2021/12/08 05:22:56;;;;;;;28.10;15.75;;;;;;;0.40;83.26;98260.53;5114922;28;20051;-95
2021/12/08 05:25:28;;;;;;;27.02;14.35;;;;;;;0.53;78.29;98233.56;5115381;28;20044;-95
2021/12/08 05:27:57;;;;;;;25.88;14.52;;;;;;;0.57;78.98;98230.09;5115512;28;20107;-95
2021/12/08 05:30:28;;;;;;;26.60;15.43;;;;;;;0.61;80.23;98244.06;5115203;28;20050;-92
2021/12/08 05:32:54;;;;;;;35.00;17.17;;;;;;;0.86;81.64;98270.31;5114518;28;20483;-94
2021/12/08 05:35:22;;;;;;;28.77;15.73;;;;;;;0.73;81.71;98232.75;5115077;28;20493;-94
2021/12/08 05:37:49;;;;;;;32.90;17.63;;;;;;;0.87;81.23;98252.00;5115300;28;20047;-95
2021/12/08 05:40:18;;;;;;;29.67;17.15;;;;;;;0.72;82.41;98218.81;5114581;28;20044;-93
2021/12/08 05:42:45;;;;;;;26.67;15.03;;;;;;;0.80;82.83;98229.28;5115302;28;20490;-94
2021/12/08 05:45:14;;;;;;;33.63;16.67;;;;;;;0.74;81.31;98206.59;5116158;28;20082;-95
2021/12/08 05:47:43;;;;;;;31.73;15.68;;;;;;;0.84;83.02;98215.34;5115738;28;20044;-96
2021/12/08 05:50:13;;;;;;;30.95;16.17;;;;;;;0.93;83.01;98223.22;5116196;28;20081;-94
2021/12/08 05:52:39;;;;;;;28.55;15.20;;;;;;;0.70;83.17;98196.13;5115160;28;20130;-95
2021/12/08 05:55:07;;;;;;;27.85;15.10;;;;;;;0.84;82.72;98220.56;5115274;28;20127;-94
2021/12/08 05:57:39;;;;;;;28.38;15.23;;;;;;;0.80;83.47;98210.97;5114418;28;20179;-95
2021/12/08 06:00:08;;;;;;;28.98;15.40;;;;;;;0.57;83.72;98196.06;5114707;28;20389;-93
2021/12/08 06:02:36;;;;;;;26.95;15.40;;;;;;;0.58;84.18;98187.34;5114643;28;20043;-94
2021/12/08 06:17:37;;;;;;;38.33;14.93;;;;;;;0.83;84.70;98203.13;4992143;28;20436;-94
2021/12/08 06:20:22;;;;;;;27.48;15.63;;;;;;;0.67;84.29;98196.97;4986021;28;20057;-93
2021/12/08 06:22:50;;;;;;;29.73;15.63;;;;;;;0.69;84.86;98200.44;4978329;28;20562;-92
2021/12/08 06:25:17;;;;;;;34.25;17.15;;;;;;;0.56;84.80;98175.13;4998794;28;20132;-93
2021/12/08 06:27:43;;;;;;;31.35;16.70;;;;;;;0.59;85.54;98186.47;5018874;28;20092;-95
2021/12/08 06:30:15;;;;;;;26.80;16.30;;;;;;;0.51;86.45;98163.78;5018309;28;20438;-93
2021/12/08 06:32:43;;;;;;;29.50;15.52;;;;;;;0.70;86.54;98201.34;5018991;28;20050;-94
2021/12/08 06:35:14;;;;;;;31.83;16.10;;;;;;;0.51;87.15;98162.03;5018502;28;20046;-94
2021/12/08 06:37:42;;;;;;;29.70;16.90;;;;;;;0.72;88.32;98181.31;5018477;28;20056;-93
2021/12/08 06:40:15;;;;;;;31.25;16.17;;;;;;;0.73;89.52;98185.66;5018426;28;20054;-93
2021/12/08 06:42:45;;;;;;;28.52;15.65;;;;;;;0.77;90.11;98195.25;5017974;28;20046;-95
2021/12/08 06:45:17;;;;;;;30.55;16.80;;;;;;;0.85;90.66;98204.00;5040495;28;20045;-92
2021/12/08 06:47:45;;;;;;;31.05;17.00;;;;;;;0.73;90.59;98181.28;5058614;28;20104;-94
2021/12/08 06:50:17;;;;;;;30.38;16.77;;;;;;;0.69;90.21;98162.97;5039379;28;20546;-94
2021/12/08 06:52:44;;;;;;;31.15;16.33;;;;;;;0.69;89.80;98169.06;5039843;28;20041;-94
2021/12/08 06:55:14;;;;;;;31.42;17.05;;;;;;;0.50;91.13;98133.25;5039096;28;20526;-93
2021/12/08 06:57:43;;;;;;;34.72;16.63;;;;;;;0.71;92.21;98150.75;5038557;28;20507;-93
2021/12/08 07:00:22;;;;;;;31.13;15.55;;;;;;;0.66;92.63;98118.47;5038840;28;20045;-94
2021/12/08 07:03:04;;;;;;;29.52;15.75;;;;;;;0.82;93.46;98138.56;5038732;28;20053;-95
2021/12/08 07:08:50;;;;;;;36.03;17.30;;;;;;;0.84;93.51;98131.56;5176337;27;20385;-95
2021/12/08 07:11:19;;;;;;;32.38;16.50;;;;;;;0.85;94.27;98119.34;5176530;27;20095;-95
2021/12/08 07:13:47;;;;;;;29.13;16.15;;;;;;;1.03;94.61;98125.50;5176793;27;20134;-93
2021/12/08 07:16:17;;;;;;;32.05;17.25;;;;;;;1.07;94.36;98133.38;5177154;27;20042;-94
2021/12/08 07:18:53;;;;;;;32.95;17.63;;;;;;;0.96;94.71;98113.28;5177046;27;20042;-94
2021/12/08 07:21:22;;;;;;;35.03;18.95;;;;;;;0.97;94.93;98106.28;5177514;27;20073;-94
2021/12/08 07:23:52;;;;;;;;;;;;;;;1.25;95.35;98154.31;5177434;27;20050;-93
2021/12/08 07:26:29;;;;;;;34.10;19.35;;;;;;;1.14;95.41;98135.09;5176017;27;19923;-93
2021/12/08 07:28:58;;;;;;;35.00;20.10;;;;;;;1.08;94.50;98120.25;5176339;27;20610;-94
2021/12/08 07:31:29;;;;;;;37.03;21.45;;;;;;;1.17;94.61;98122.00;5176879;27;20067;-94
2021/12/08 07:34:03;;;;;;;31.73;19.10;;;;;;;1.18;94.35;98110.66;5176518;27;20441;-92
2021/12/08 07:36:32;;;;;;;34.10;18.67;;;;;;;1.18;95.10;98115.91;5176188;27;20039;-95
2021/12/08 07:39:06;;;;;;;25.65;15.23;;;;;;;1.21;95.21;98111.53;5175959;27;20065;-95
2021/12/08 07:41:39;;;;;;;18.27;8.77;;;;;;;1.36;94.59;98101.91;5176977;27;20039;-93
2021/12/08 07:44:09;;;;;;;19.65;10.73;;;;;;;1.51;94.71;98106.25;5176530;27;20074;-92
2021/12/08 07:46:39;;;;;;;16.70;8.75;;;;;;;1.61;93.81;98108.88;5175876;27;20039;-96
2021/12/08 07:49:11;;;;;;;14.23;7.78;;;;;;;1.44;87.70;98095.78;5175421;27;20067;-95
2021/12/08 07:51:40;;;;;;;14.80;7.43;;;;;;;1.51;88.29;98082.69;5175155;27;20070;-96
2021/12/08 07:54:10;;;;;;;16.15;7.53;;;;;;;1.55;90.94;98081.81;5174984;27;20125;-95
2021/12/08 07:56:38;;;;;;;13.63;6.95;;;;;;;1.58;91.90;98084.41;5175578;27;20049;-95
2021/12/08 07:59:09;;;;;;;19.58;8.07;;;;;;;1.57;93.09;98069.56;5175218;27;20047;-94
2021/12/08 08:01:41;;;;;;;16.27;7.57;;;;;;;1.65;92.62;98078.28;5175300;27;20437;-95
2021/12/08 08:04:12;;;;;;;14.20;7.55;;;;;;;1.60;91.71;98074.78;5174773;27;20042;-96
2021/12/08 08:06:42;;;;;;;14.75;7.55;;;;;;;1.81;92.87;98103.56;5174852;27;20514;-95
2021/12/08 08:09:17;;;;;;;19.60;9.30;;;;;;;1.71;87.55;98096.59;5175381;27;20053;-95
2021/12/08 08:11:54;;;;;;;13.75;7.35;;;;;;;1.84;87.30;98098.34;5174689;27;20072;-95
2021/12/08 08:14:21;;;;;;;14.13;7.72;;;;;;;1.76;87.61;98057.28;5174652;27;20049;-96
2021/12/08 08:16:51;;;;;;;18.15;8.80;;;;;;;1.80;87.28;98061.63;5175579;27;20496;-95
2021/12/08 08:19:25;;;;;;;15.65;8.88;;;;;;;1.77;88.47;98049.41;5165357;27;20035;-94
2021/12/08 08:21:57;;;;;;;16.83;7.90;;;;;;;1.78;88.30;98051.16;5160466;27;20075;-94
2021/12/08 08:24:31;;;;;;;17.05;8.95;;;;;;;1.96;90.07;98079.06;5161178;27;20054;-94
2021/12/08 08:27:00;;;;;;;17.30;8.73;;;;;;;1.82;88.67;98047.66;5159994;27;20518;-93
2021/12/08 08:29:26;;;;;;;14.23;8.65;;;;;;;1.79;88.80;98047.66;5159745;27;20066;-94
2021/12/08 08:31:59;;;;;;;13.80;7.85;;;;;;;1.99;89.64;98076.41;5159265;27;20046;-94
2021/12/08 08:34:28;;;;;;;13.57;7.97;;;;;;;1.79;91.23;98045.03;5159800;27;20085;-96
2021/12/08 08:36:55;;;;;;;14.75;7.47;;;;;;;1.97;91.64;98078.16;5159474;27;20548;-95
2021/12/08 08:39:25;;;;;;;14.15;7.43;;;;;;;1.80;91.45;98044.16;5159108;27;20050;-94
2021/12/08 08:41:59;;;;;;;11.48;6.43;;;;;;;1.81;90.29;98040.66;5159388;27;20038;-94
2021/12/08 08:44:36;;;;;;;16.50;8.70;;;;;;;1.90;92.54;98038.88;5159070;27;20047;-95
2021/12/08 08:47:08;;;;;;;11.98;7.25;;;;;;;1.90;92.80;98038.88;5159524;27;20046;-95
2021/12/08 08:49:38;;;;;;;13.77;7.10;;;;;;;1.98;94.01;98040.59;5159275;27;20488;-94
2021/12/08 08:52:06;;;;;;;10.20;6.60;;;;;;;2.04;95.39;98040.56;5158881;27;20047;-95
2021/12/08 08:54:36;;;;;;;13.95;6.97;;;;;;;2.15;93.82;98045.75;5159050;27;20054;-94
2021/12/08 08:57:10;;;;;;;11.35;6.70;;;;;;;2.04;93.72;98016.97;5158756;27;20031;-94
2021/12/08 09:04:26;;;;;;;14.18;6.93;;;;;;;2.26;91.30;98036.06;5056367;28;20040;-94
2021/12/08 09:07:04;;;;;;;12.48;7.10;;;;;;;2.09;92.23;98001.19;5132326;27;20400;-95
2021/12/08 09:09:41;;;;;;;11.02;6.32;;;;;;;2.13;93.54;97999.44;5159704;27;20122;-94
2021/12/08 09:19:30;;;;;;;14.77;6.55;;;;;;;2.21;93.05;97993.25;5056719;28;20033;-94
2021/12/08 09:22:19;;;;;;;12.43;5.90;;;;;;;2.24;91.69;97984.50;5158578;27;20045;-94
2021/12/08 09:24:56;;;;;;;11.18;5.78;;;;;;;2.53;92.31;98025.41;5158608;27;20070;-94
2021/12/08 09:27:28;;;;;;;11.55;6.32;;;;;;;2.47;92.25;98005.31;5158615;27;20073;-94
2021/12/08 09:29:58;;;;;;;13.23;6.70;;;;;;;2.61;91.03;98003.47;5157663;27;20043;-95
2021/12/08 09:32:32;;;;;;;10.95;5.15;;;;;;;2.63;90.03;97990.34;5158008;27;20070;-95
2021/12/08 09:35:06;;;;;;;12.88;6.03;;;;;;;2.65;89.01;97984.19;5160211;27;20038;-94
2021/12/08 09:37:35;;;;;;;20.88;13.07;;;;;;;2.81;91.13;98010.31;5159082;27;20039;-94
2021/12/08 09:40:07;;;;;;;;;;;;;;;2.79;93.71;98002.44;5159853;27;20050;-94
2021/12/08 09:42:39;;;;;;;15.50;8.63;;;;;;;2.62;93.05;97965.84;5159798;27;19919;-94
2021/12/08 09:45:10;;;;;;;15.30;9.40;;;;;;;2.75;93.52;97970.97;5159406;27;20047;-95
2021/12/08 09:47:37;;;;;;;34.58;16.02;;;;;;;2.74;95.42;97943.00;5158262;27;20055;-94
2021/12/08 09:50:08;;;;;;;11.15;6.45;;;;;;;3.00;92.51;97969.88;5159564;27;20103;-95
2021/12/08 09:52:34;;;;;;;30.88;17.60;;;;;;;3.02;90.67;97931.34;5160698;27;20121;-92
2021/12/08 09:55:02;;;;;;;34.30;18.42;;;;;;;3.17;90.98;97943.44;5159928;27;20107;-94
2021/12/08 09:57:29;;;;;;;35.50;21.60;;;;;;;3.20;93.02;97916.25;5158936;27;20034;-93
2021/12/08 09:59:55;;;;;;;19.45;11.15;;;;;;;3.29;88.69;97888.09;5158989;27;20078;-95
2021/12/08 10:02:29;;;;;;;19.35;10.75;;;;;;;3.39;88.03;97903.78;5160115;27;20043;-94
2021/12/08 10:04:56;;;;;;;23.92;13.38;;;;;;;3.30;86.70;97862.72;5160088;27;20047;-95
2021/12/08 10:07:25;;;;;;;19.33;11.32;;;;;;;3.54;86.96;97894.84;5160088;27;20103;-94
2021/12/08 10:09:51;;;;;;;14.95;9.55;;;;;;;3.42;88.02;97862.53;5159395;27;20126;-95
2021/12/08 10:12:17;;;;;;;17.65;9.90;;;;;;;3.46;87.87;97864.25;5159885;27;20038;-95
2021/12/08 10:14:46;;;;;;;20.38;12.48;;;;;;;3.62;87.49;97883.34;5160129;27;20053;-95
2021/12/08 10:17:12;;;;;;;;;;;;;;;3.80;80.59;97892.72;5159741;27;20038;-95
2021/12/08 10:19:39;;;;;;;14.77;7.05;;;;;;;3.87;76.22;97861.94;5158661;27;19925;-95
2021/12/08 10:22:16;;;;;;;11.65;6.78;;;;;;;4.01;73.53;97873.13;5160869;27;20046;-95
2021/12/08 10:25:04;;;;;;;31.65;15.93;;;;;;;4.15;76.43;97872.91;5160717;27;20551;-96
2021/12/08 10:27:31;;;;;;;25.52;14.70;;;;;;;4.01;76.97;97838.03;5162365;27;20041;-94
2021/12/08 10:30:18;;;;;;;27.30;15.57;;;;;;;4.00;80.09;97836.31;5162026;27;20046;-95
2021/12/08 10:32:44;;;;;;;19.83;12.10;;;;;;;3.95;80.92;97835.50;5162936;27;20072;-94
2021/12/08 10:35:47;;;;;;;21.58;11.25;;;;;;;4.13;77.65;97847.50;5161656;27;20039;-96
2021/12/08 10:38:16;;;;;;;19.92;10.90;;;;;;;4.17;75.96;97828.16;5162269;27;20511;-96
2021/12/08 10:41:03;;;;;;;21.85;11.20;;;;;;;4.17;77.15;97817.63;5162961;27;20042;-95
2021/12/08 10:43:32;;;;;;;17.30;10.73;;;;;;;4.18;76.31;97790.41;5162866;27;20066;-95
2021/12/08 10:46:04;;;;;;;18.27;9.38;;;;;;;4.36;74.51;97792.72;5161260;27;20496;-95
2021/12/08 10:48:36;;;;;;;17.77;9.25;;;;;;;4.57;76.33;97798.47;5161453;27;20039;-95
2021/12/08 10:57:34;;;;;;;16.85;9.50;;;;;;;4.71;71.90;97755.19;5177474;27;20409;-95
2021/12/08 11:00:03;;;;;;;;;;;;;;;5.05;72.13;97782.59;5160394;27;20061;-95
2021/12/08 11:02:43;;;;;;;16.85;9.93;;;;;;;4.89;73.29;97756.59;5160468;27;19968;-95
2021/12/08 11:05:37;;;;;;;17.38;9.43;;;;;;;4.84;76.19;97739.16;5157227;27;20050;-95
2021/12/08 11:08:10;;;;;;;18.25;10.43;;;;;;;4.90;75.90;97739.00;5155459;27;20039;-95
2021/12/08 11:10:38;;;;;;;15.48;8.95;;;;;;;4.92;78.82;97743.38;5155332;27;20047;-96
2021/12/08 11:13:07;;;;;;;15.68;7.15;;;;;;;5.15;76.69;97771.84;5155525;27;20043;-94
2021/12/08 11:15:38;;;;;;;13.60;6.60;;;;;;;5.05;76.85;97761.53;5155225;27;20033;-94
2021/12/08 11:18:10;;;;;;;13.35;7.15;;;;;;;4.93;79.04;97739.81;5157151;27;20504;-95
2021/12/08 11:20:42;;;;;;;13.07;6.50;;;;;;;5.01;79.76;97758.09;5147530;27;20069;-95
2021/12/08 11:23:15;;;;;;;16.67;6.85;;;;;;;4.87;79.15;97749.63;5136050;28;20043;-93
2021/12/08 11:25:45;;;;;;;16.17;10.15;;;;;;;4.92;82.29;97766.19;5136604;27;20058;-96
2021/12/08 11:28:25;;;;;;;13.20;7.88;;;;;;;4.98;85.34;97738.84;5137556;27;20035;-96
2021/12/08 11:31:01;;;;;;;15.57;8.02;;;;;;;5.04;85.51;97730.81;5119907;28;20052;-96
2021/12/08 11:33:30;;;;;;;36.80;15.55;;;;;;;5.15;82.04;97727.03;5120172;28;20048;-96
2021/12/08 11:36:18;;;;;;;25.92;12.07;;;;;;;5.53;81.07;97745.50;5121112;28;20036;-96
2021/12/08 11:38:48;;;;;;;21.67;11.50;;;;;;;5.47;80.31;97716.69;5118890;28;20044;-94
2021/12/08 11:44:31;;;;;;;43.30;20.10;;;;;;;5.59;80.11;97700.53;5149380;27;1398110;-95
2021/12/08 11:46:59;;;;;;;47.88;24.17;;;;;;;5.42;79.85;97664.06;5178323;27;20050;-94
2021/12/08 11:49:26;;;;;;;36.35;18.70;;;;;;;5.47;78.04;97661.31;5179438;27;20047;-95
2021/12/08 11:51:58;;;;;;;26.90;14.10;;;;;;;5.55;78.11;97660.22;5176424;27;20054;-95
2021/12/08 11:54:38;;;;;;;23.75;11.95;;;;;;;5.79;77.28;97680.72;5177383;27;20511;-95
2021/12/08 11:57:10;;;;;;;40.08;21.02;;;;;;;5.84;78.47;97649.84;5177301;27;20071;-96
2021/12/08 11:59:59;;;;;;;30.95;16.77;;;;;;;5.85;79.89;97633.09;5180503;27;20030;-95
2021/12/08 12:02:28;;;;;;;40.13;19.60;;;;;;;5.87;79.76;97615.44;5178987;27;20414;-96
2021/12/08 12:04:54;;;;;;;24.67;14.57;;;;;;;5.90;80.00;97613.59;5182103;27;20039;-92
2021/12/08 12:07:20;;;;;;;58.15;25.63;;;;;;;5.88;80.18;97596.94;5178022;27;20038;-95
2021/12/08 12:09:47;;;;;;;40.92;21.75;;;;;;;6.01;80.03;97609.81;5179566;27;20046;-96
2021/12/08 12:12:14;;;;;;;44.65;26.10;;;;;;;5.90;80.29;97581.94;5180106;27;20072;-95
2021/12/08 12:14:40;;;;;;;45.60;28.10;;;;;;;6.00;80.87;97605.44;5178892;27;20053;-93
2021/12/08 12:17:08;;;;;;;89.95;42.28;;;;;;;5.99;83.24;97595.81;5177245;27;20067;-95
2021/12/08 12:19:41;;;;;;;108.07;53.55;;;;;;;5.89;82.93;97587.25;5177854;27;20042;-95
2021/12/08 12:22:27;;;;;;;112.93;54.50;;;;;;;5.78;83.59;97587.53;5177645;27;20049;-95
2021/12/08 12:25:06;;;;;;;114.18;55.97;;;;;;;5.76;83.72;97574.38;5178021;27;20046;-96
2021/12/08 12:27:43;;;;;;;62.00;33.83;;;;;;;5.84;83.75;97595.28;5178445;27;20050;-95
2021/12/08 12:30:16;;;;;;;54.67;27.08;;;;;;;5.73;83.33;97582.38;5179896;27;20519;-94
2021/12/08 12:32:47;;;;;;;93.63;34.60;;;;;;;5.72;83.53;97579.78;5182011;27;20081;-95
2021/12/08 12:35:18;;;;;;;85.68;33.88;;;;;;;5.69;84.16;97572.81;5178862;27;20118;-96
2021/12/08 12:37:45;;;;;;;52.88;28.30;;;;;;;5.66;84.81;97567.63;5174935;27;20035;-94
2021/12/08 12:40:16;;;;;;;62.92;36.03;;;;;;;5.61;85.33;97553.69;5175011;27;20038;-96
2021/12/08 12:42:50;;;;;;;45.60;24.85;;;;;;;5.69;87.87;97533.25;5175898;27;20038;-95
2021/12/08 12:45:17;;;;;;;48.53;27.38;;;;;;;5.69;89.51;97541.16;5175305;27;20046;-95
2021/12/08 12:48:05;;;;;;;48.53;27.55;;;;;;;5.87;89.47;97558.25;5175298;27;20070;-96
2021/12/08 12:50:31;;;;;;;40.05;23.17;;;;;;;5.89;90.13;97550.31;5175891;27;20492;-96
2021/12/08 12:52:59;;;;;;;45.95;24.50;;;;;;;5.80;92.09;97527.69;5174833;27;20031;-96
2021/12/08 12:55:27;;;;;;;39.90;19.60;;;;;;;5.86;91.91;97511.69;5164744;27;20055;-96
2021/12/08 12:58:16;;;;;;;37.55;19.50;;;;;;;5.96;92.48;97507.03;5161677;27;20050;-95
2021/12/08 13:00:46;;;;;;;35.50;18.90;;;;;;;6.00;93.21;97492.84;5160837;27;20050;-95
2021/12/08 13:03:35;;;;;;;29.95;15.50;;;;;;;6.22;93.03;97524.75;5160776;27;20453;-94
2021/12/08 13:06:01;;;;;;;;;;;;;;;6.28;93.92;97518.44;5160713;27;20047;-96
2021/12/08 13:08:31;;;;;;;25.27;15.13;;;;;;;6.07;92.98;97490.88;5160324;27;20321;-94
2021/12/08 13:10:59;;;;;;;29.98;17.58;;;;;;;6.17;94.16;97489.72;5160280;27;20042;-95
2021/12/08 13:13:26;;;;;;;29.83;17.05;;;;;;;6.26;93.22;97494.69;5160564;27;20049;-95
2021/12/08 13:15:51;;;;;;;29.30;14.27;;;;;;;6.35;94.48;97475.97;5159132;27;20043;-94
2021/12/08 13:18:27;;;;;;;56.88;29.27;;;;;;;6.44;93.64;97481.84;5159439;27;20506;-95
2021/12/08 13:20:57;;;;;;;56.03;28.50;;;;;;;6.37;94.57;97465.34;5158838;27;20050;-94
2021/12/08 13:23:27;;;;;;;22.30;9.65;;;;;;;6.41;94.04;97466.13;5159111;27;20077;-95
2021/12/08 13:28:49;;;;;;;27.40;14.32;;;;;;;6.50;95.24;97442.03;5113868;27;20372;-93